createdAt,value
2022-09-26T00:01:15.647Z,12.19
2022-09-26T00:03:23.046Z,12.20
2022-09-26T00:05:27.821Z,12.20
2022-09-26T00:07:32.588Z,12.20
2022-09-26T00:09:37.373Z,12.17
2022-09-26T00:11:42.560Z,12.19
2022-09-26T00:13:47.122Z,12.11
2022-09-26T00:15:51.998Z,12.09
2022-09-26T00:17:56.754Z,12.11
2022-09-26T00:20:04.462Z,12.08
2022-09-26T00:22:09.272Z,12.06
2022-09-26T00:24:14.437Z,12.02
2022-09-26T00:26:21.093Z,11.97
2022-09-26T00:28:25.979Z,11.96
2022-09-26T00:30:30.824Z,11.88
2022-09-26T00:32:35.602Z,11.83
2022-09-26T00:34:40.674Z,11.82
2022-09-26T00:36:48.102Z,11.78
2022-09-26T00:38:52.919Z,11.65
2022-09-26T00:40:57.832Z,11.66
2022-09-26T00:43:02.654Z,11.59
2022-09-26T00:45:08.667Z,11.56
2022-09-26T00:47:49.342Z,11.53
2022-09-26T00:49:58.406Z,11.45
2022-09-26T00:52:10.302Z,11.49
2022-09-26T00:54:18.343Z,11.53
2022-09-26T00:56:30.319Z,11.57
2022-09-26T00:58:40.777Z,11.56
2022-09-26T01:00:49.742Z,11.61
2022-09-26T01:02:56.046Z,11.65
2022-09-26T01:05:02.204Z,11.73
2022-09-26T01:07:13.616Z,11.68
2022-09-26T01:09:19.180Z,11.65
2022-09-26T01:11:24.918Z,11.64
2022-09-26T01:13:31.522Z,11.65
2022-09-26T01:15:36.488Z,11.60
2022-09-26T01:17:45.874Z,11.63
2022-09-26T01:20:06.276Z,11.63
2022-09-26T01:22:39.654Z,11.60
2022-09-26T01:25:03.586Z,11.64
2022-09-26T01:27:26.549Z,11.59
2022-09-26T01:30:04.076Z,11.60
2022-09-26T01:32:35.099Z,11.62
2022-09-26T01:34:45.214Z,11.59
2022-09-26T01:37:06.053Z,11.64
2022-09-26T01:39:32.166Z,11.64
2022-09-26T01:41:53.889Z,11.71
2022-09-26T01:44:07.207Z,11.69
2022-09-26T01:46:22.624Z,11.69
2022-09-26T01:48:36.599Z,11.69
2022-09-26T01:50:47.133Z,11.71
2022-09-26T01:52:59.827Z,11.75
2022-09-26T01:55:12.885Z,11.72
2022-09-26T01:57:22.869Z,11.79
2022-09-26T01:59:32.029Z,11.77
2022-09-26T02:01:44.381Z,11.83
2022-09-26T02:03:57.036Z,11.74
2022-09-26T02:06:06.061Z,11.77
2022-09-26T02:08:15.097Z,11.83
2022-09-26T02:10:28.500Z,11.85
2022-09-26T02:12:36.915Z,11.95
2022-09-26T02:14:45.341Z,11.95
2022-09-26T02:16:53.324Z,11.93
2022-09-26T02:19:08.559Z,11.91
2022-09-26T02:21:18.893Z,11.96
2022-09-26T02:23:24.257Z,11.94
2022-09-26T02:25:31.693Z,11.95
2022-09-26T02:27:36.699Z,11.83
2022-09-26T02:29:41.526Z,11.76
2022-09-26T02:31:54.009Z,11.77
2022-09-26T02:34:01.755Z,11.70
2022-09-26T02:36:08.463Z,11.66
2022-09-26T02:38:13.541Z,11.65
2022-09-26T02:40:35.437Z,11.60
2022-09-26T02:42:51.947Z,11.61
2022-09-26T02:45:20.638Z,11.61
2022-09-26T02:47:40.716Z,11.66
2022-09-26T02:50:11.060Z,11.69
2022-09-26T02:52:27.261Z,11.76
2022-09-26T02:54:46.535Z,11.72
2022-09-26T02:57:03.525Z,11.68
2022-09-26T02:59:16.779Z,11.71
2022-09-26T03:01:32.811Z,11.68
2022-09-26T03:03:42.876Z,11.68
2022-09-26T03:05:54.437Z,11.69
2022-09-26T03:08:04.142Z,11.75
2022-09-26T03:10:11.858Z,11.79
2022-09-26T03:12:16.939Z,11.79
2022-09-26T03:14:21.742Z,11.87
2022-09-26T03:16:29.432Z,11.80
2022-09-26T03:18:41.413Z,11.75
2022-09-26T03:20:46.888Z,11.75
2022-09-26T03:22:54.103Z,11.76
2022-09-26T03:25:00.693Z,11.68
2022-09-26T03:27:07.352Z,11.71
2022-09-26T03:29:14.315Z,11.71
2022-09-26T03:31:21.923Z,11.65
2022-09-26T03:33:32.444Z,11.66
2022-09-26T03:35:37.306Z,11.71
2022-09-26T03:37:42.178Z,11.71
2022-09-26T03:39:50.001Z,11.72
2022-09-26T03:42:02.771Z,11.81
2022-09-26T03:44:08.838Z,11.82
2022-09-26T03:46:33.999Z,11.87
2022-09-26T03:48:43.335Z,11.94
2022-09-26T03:50:47.873Z,12.03
2022-09-26T03:52:53.453Z,12.04
2022-09-26T03:55:01.091Z,12.06
2022-09-26T03:57:07.192Z,12.08
2022-09-26T03:59:16.903Z,11.97
2022-09-26T04:01:25.053Z,11.97
2022-09-26T04:03:30.252Z,12.07
2022-09-26T04:05:36.133Z,11.92
2022-09-26T04:07:41.012Z,11.89
2022-09-26T04:09:45.950Z,11.81
2022-09-26T04:11:53.693Z,11.75
2022-09-26T04:13:59.559Z,11.83
2022-09-26T04:16:10.530Z,11.85
2022-09-26T04:18:16.591Z,11.84
2022-09-26T04:20:21.503Z,11.79
2022-09-26T04:22:27.346Z,11.76
2022-09-26T04:24:32.904Z,11.66
2022-09-26T04:26:37.984Z,11.68
2022-09-26T04:28:46.717Z,11.77
2022-09-26T04:30:52.128Z,11.86
2022-09-26T04:32:57.897Z,11.90
2022-09-26T04:35:12.049Z,11.94
2022-09-26T04:37:16.598Z,11.96
2022-09-26T04:39:22.343Z,11.97
2022-09-26T04:41:27.667Z,11.95
2022-09-26T04:43:32.549Z,11.93
2022-09-26T04:45:43.925Z,11.98
2022-09-26T04:47:51.824Z,12.00
2022-09-26T04:50:20.265Z,12.04
2022-09-26T04:52:41.632Z,12.07
2022-09-26T04:54:46.394Z,12.11
2022-09-26T04:56:51.356Z,12.15
2022-09-26T04:58:57.806Z,12.15
2022-09-26T05:01:11.165Z,12.16
2022-09-26T05:03:48.661Z,12.14
2022-09-26T05:05:54.419Z,12.14
2022-09-26T05:07:59.540Z,12.13
2022-09-26T05:10:04.621Z,12.08
2022-09-26T05:12:17.321Z,12.09
2022-09-26T05:14:25.570Z,12.08
2022-09-26T05:16:33.892Z,12.05
2022-09-26T05:18:40.471Z,12.00
2022-09-26T05:20:48.424Z,11.74
2022-09-26T05:22:53.260Z,11.49
2022-09-26T05:25:10.530Z,11.42
2022-09-26T05:27:18.713Z,11.31
2022-09-26T05:29:23.588Z,11.21
2022-09-26T05:31:40.147Z,11.17
2022-09-26T05:33:45.538Z,11.17
2022-09-26T05:35:54.197Z,11.12
2022-09-26T05:38:02.102Z,11.18
2022-09-26T05:40:21.448Z,11.22
2022-09-26T05:42:29.577Z,11.25
2022-09-26T05:44:34.657Z,11.29
2022-09-26T05:46:44.219Z,11.42
2022-09-26T05:48:50.567Z,11.45
2022-09-26T05:51:00.109Z,11.49
2022-09-26T05:53:06.049Z,11.43
2022-09-26T05:55:12.095Z,11.38
2022-09-26T05:57:53.362Z,11.31
2022-09-26T06:00:00.976Z,11.29
2022-09-26T06:02:10.704Z,11.27
2022-09-26T06:04:32.703Z,11.32
2022-09-26T06:06:51.374Z,11.30
2022-09-26T06:08:56.193Z,11.32
2022-09-26T06:11:04.992Z,11.36
2022-09-26T06:13:10.472Z,11.33
2022-09-26T06:15:26.688Z,11.38
2022-09-26T06:17:36.482Z,11.37
2022-09-26T06:19:41.308Z,11.36
2022-09-26T06:21:46.275Z,11.27
2022-09-26T06:23:54.609Z,11.15
2022-09-26T06:26:00.939Z,11.15
2022-09-26T06:28:05.724Z,11.15
2022-09-26T06:30:13.321Z,11.24
2022-09-26T06:32:18.811Z,11.30
2022-09-26T06:34:46.520Z,11.36
2022-09-26T06:37:18.692Z,11.36
2022-09-26T06:39:23.555Z,11.37
2022-09-26T06:41:28.602Z,11.19
2022-09-26T06:43:34.140Z,11.11
2022-09-26T06:45:49.166Z,11.09
2022-09-26T06:48:09.177Z,11.15
2022-09-26T06:50:36.780Z,11.16
2022-09-26T06:52:42.446Z,11.22
2022-09-26T06:54:47.420Z,11.32
2022-09-26T06:56:52.249Z,11.32
2022-09-26T06:58:57.550Z,11.32
2022-09-26T07:01:10.209Z,11.27
2022-09-26T07:03:36.060Z,11.39
2022-09-26T07:06:03.609Z,11.46
2022-09-26T07:08:08.526Z,11.43
2022-09-26T07:10:14.750Z,11.49
2022-09-26T07:12:25.926Z,11.60
2022-09-26T07:14:31.098Z,11.65
2022-09-26T07:16:42.731Z,11.60
2022-09-26T07:19:20.701Z,11.75
2022-09-26T07:21:43.297Z,11.83
2022-09-26T07:24:02.880Z,11.90
2022-09-26T07:26:08.059Z,11.94
2022-09-26T07:28:13.199Z,11.96
2022-09-26T07:30:24.365Z,11.97
2022-09-26T07:32:46.321Z,11.99
2022-09-26T07:35:19.185Z,12.07
2022-09-26T07:37:26.885Z,12.13
2022-09-26T07:39:33.679Z,12.12
2022-09-26T07:41:38.942Z,12.14
2022-09-26T07:46:22.033Z,12.26
2022-09-26T07:48:41.688Z,12.37
2022-09-26T07:51:09.132Z,12.40
2022-09-26T07:53:24.329Z,12.46
2022-09-26T07:56:10.582Z,12.55
2022-09-26T07:58:38.568Z,12.66
2022-09-26T08:00:48.162Z,12.80
2022-09-26T08:03:14.086Z,12.93
2022-09-26T08:05:24.637Z,13.09
2022-09-26T08:07:30.519Z,13.25
2022-09-26T08:09:44.389Z,13.55
2022-09-26T08:12:07.592Z,13.84
2022-09-26T08:14:32.684Z,14.16
2022-09-26T08:16:57.991Z,14.21
2022-09-26T08:19:02.858Z,14.19
2022-09-26T08:21:09.052Z,14.43
2022-09-26T08:23:14.305Z,14.96
2022-09-26T08:25:25.668Z,15.75
2022-09-26T08:27:36.510Z,16.31
2022-09-26T08:29:42.276Z,16.52
2022-09-26T08:31:47.810Z,16.29
2022-09-26T08:33:54.058Z,16.21
2022-09-26T08:36:09.137Z,16.20
2022-09-26T08:38:34.315Z,15.81
2022-09-26T08:41:20.082Z,15.75
2022-09-26T08:43:57.794Z,15.49
2022-09-26T08:46:40.710Z,14.95
2022-09-26T08:49:20.827Z,14.76
2022-09-26T08:51:32.896Z,14.56
2022-09-26T08:53:45.227Z,14.46
2022-09-26T08:55:53.777Z,14.44
2022-09-26T08:58:06.860Z,14.50
2022-09-26T09:00:21.771Z,14.52
2022-09-26T09:02:40.731Z,14.39
2022-09-26T09:04:57.580Z,14.18
2022-09-26T09:07:13.206Z,14.29
2022-09-26T09:09:20.107Z,14.26
2022-09-26T09:12:07.098Z,14.14
2022-09-26T09:14:29.659Z,14.07
2022-09-26T09:17:00.549Z,14.01
2022-09-26T09:19:36.531Z,14.13
2022-09-26T09:22:35.181Z,14.09
2022-09-26T09:24:59.710Z,13.97
2022-09-26T09:30:03.220Z,14.00
2022-09-26T09:32:42.058Z,14.09
2022-09-26T09:34:55.448Z,14.38
2022-09-26T09:37:26.688Z,14.37
2022-09-26T09:39:53.056Z,14.39
2022-09-26T09:42:20.224Z,14.48
2022-09-26T09:44:41.943Z,14.72
2022-09-26T09:46:51.904Z,14.94
2022-09-26T09:49:01.957Z,15.12
2022-09-26T09:51:16.438Z,15.27
2022-09-26T09:53:39.582Z,15.53
2022-09-26T09:55:56.726Z,15.39
2022-09-26T09:58:17.161Z,15.36
2022-09-26T10:00:27.729Z,15.58
2022-09-26T10:02:50.471Z,15.60
2022-09-26T10:05:11.036Z,15.72
2022-09-26T10:07:16.346Z,15.72
2022-09-26T10:09:40.126Z,15.79
2022-09-26T10:12:30.623Z,15.90
2022-09-26T10:15:10.574Z,15.96
2022-09-26T10:18:00.816Z,16.08
2022-09-26T10:20:43.278Z,16.08
2022-09-26T10:22:48.874Z,15.77
2022-09-26T10:25:09.214Z,15.60
2022-09-26T10:27:22.597Z,15.75
2022-09-26T10:29:35.255Z,15.86
2022-09-26T10:31:43.325Z,16.05
2022-09-26T10:34:00.356Z,16.18
2022-09-26T10:36:20.010Z,15.92
2022-09-26T10:38:31.968Z,15.89
2022-09-26T10:40:54.918Z,15.84
2022-09-26T10:43:21.558Z,15.73
2022-09-26T10:45:29.574Z,15.66
2022-09-26T10:48:00.338Z,15.67
2022-09-26T10:50:33.963Z,15.72
2022-09-26T10:53:01.381Z,15.90
2022-09-26T10:55:14.289Z,16.08
2022-09-26T10:57:28.345Z,16.18
2022-09-26T10:59:37.003Z,16.40
2022-09-26T11:01:47.176Z,16.49
2022-09-26T11:03:56.227Z,16.52
2022-09-26T11:06:43.995Z,16.61
2022-09-26T11:09:24.014Z,16.57
2022-09-26T11:11:50.767Z,16.45
2022-09-26T11:14:03.626Z,16.59
2022-09-26T11:16:13.510Z,16.79
2022-09-26T11:18:31.069Z,16.82
2022-09-26T11:20:55.448Z,16.82
2022-09-26T11:23:09.580Z,16.50
2022-09-26T11:25:22.677Z,16.24
2022-09-26T11:27:43.381Z,16.41
2022-09-26T11:30:02.210Z,16.68
2022-09-26T11:32:12.421Z,16.81
2022-09-26T11:34:46.137Z,16.92
2022-09-26T11:37:18.489Z,17.00
2022-09-26T11:39:40.817Z,16.85
2022-09-26T11:42:06.078Z,17.04
2022-09-26T11:44:39.625Z,17.18
2022-09-26T11:47:07.551Z,17.31
2022-09-26T11:49:47.778Z,17.41
2022-09-26T11:52:32.299Z,17.41
2022-09-26T11:54:56.170Z,17.18
2022-09-26T11:57:13.478Z,17.14
2022-09-26T11:59:32.477Z,17.16
2022-09-26T12:01:53.171Z,17.29
2022-09-26T12:04:29.662Z,17.41
2022-09-26T12:06:41.613Z,17.55
2022-09-26T12:09:02.171Z,17.57
2022-09-26T12:11:16.648Z,17.56
2022-09-26T12:13:38.223Z,17.62
2022-09-26T12:15:56.151Z,17.71
2022-09-26T12:18:15.527Z,17.83
2022-09-26T12:20:40.465Z,17.68
2022-09-26T12:22:56.708Z,17.69
2022-09-26T12:25:24.829Z,17.45
2022-09-26T12:27:37.844Z,17.48
2022-09-26T12:29:52.883Z,17.54
2022-09-26T12:32:17.616Z,17.40
2022-09-26T12:34:40.349Z,17.37
2022-09-26T12:37:02.393Z,17.52
2022-09-26T12:39:31.130Z,17.59
2022-09-26T12:41:58.022Z,17.76
2022-09-26T12:44:35.766Z,17.76
2022-09-26T12:47:07.007Z,17.68
2022-09-26T12:49:42.508Z,17.60
2022-09-26T12:51:55.227Z,17.70
2022-09-26T12:54:36.733Z,17.73
2022-09-26T12:56:50.722Z,17.86
2022-09-26T12:59:23.526Z,17.89
2022-09-26T13:02:06.610Z,17.86
2022-09-26T13:04:52.528Z,17.88
2022-09-26T13:07:19.251Z,17.94
2022-09-26T13:09:36.777Z,18.04
2022-09-26T13:11:57.906Z,17.95
2022-09-26T13:14:30.572Z,17.96
2022-09-26T13:16:47.405Z,17.93
2022-09-26T13:18:58.900Z,17.85
2022-09-26T13:21:08.948Z,17.79
2022-09-26T13:23:20.895Z,17.62
2022-09-26T13:25:35.682Z,17.67
2022-09-26T13:27:47.122Z,17.72
2022-09-26T13:30:08.285Z,17.81
2022-09-26T13:32:23.044Z,17.83
2022-09-26T13:34:39.084Z,17.90
2022-09-26T13:36:55.543Z,17.82
2022-09-26T13:39:06.347Z,17.86
2022-09-26T13:41:29.017Z,17.63
2022-09-26T13:43:52.031Z,17.64
2022-09-26T13:46:03.951Z,17.65
2022-09-26T13:48:16.853Z,17.67
2022-09-26T13:50:28.836Z,17.67
2022-09-26T13:52:55.076Z,17.75
2022-09-26T13:55:08.373Z,17.73
2022-09-26T13:57:41.754Z,17.41
2022-09-26T13:59:57.079Z,17.25
2022-09-26T14:02:23.585Z,17.13
2022-09-26T14:04:36.410Z,17.20
2022-09-26T14:07:27.696Z,17.00
2022-09-26T14:09:48.788Z,17.20
2022-09-26T14:12:34.897Z,17.18
2022-09-26T14:14:49.477Z,16.94
2022-09-26T14:16:55.491Z,16.80
2022-09-26T14:19:11.883Z,16.84
2022-09-26T14:21:30.453Z,16.78
2022-09-26T14:23:46.864Z,16.70
2022-09-26T14:25:58.367Z,16.66
2022-09-26T14:28:19.620Z,16.79
2022-09-26T14:30:32.467Z,16.88
2022-09-26T14:32:40.464Z,16.91
2022-09-26T14:34:46.626Z,16.86
2022-09-26T14:36:52.447Z,16.71
2022-09-26T14:39:00.403Z,16.84
2022-09-26T14:41:05.847Z,16.96
2022-09-26T14:43:16.045Z,17.14
2022-09-26T14:45:26.278Z,17.27
2022-09-26T14:47:40.398Z,17.34
2022-09-26T14:49:45.951Z,17.24
2022-09-26T14:51:54.229Z,17.11
2022-09-26T14:54:05.815Z,17.07
2022-09-26T14:56:14.197Z,17.04
2022-09-26T14:58:20.345Z,17.06
2022-09-26T15:00:40.642Z,16.98
2022-09-26T15:02:46.696Z,17.01
2022-09-26T15:05:01.994Z,17.01
2022-09-26T15:07:15.294Z,16.92
2022-09-26T15:09:27.485Z,16.95
2022-09-26T15:11:42.510Z,16.92
2022-09-26T15:13:48.691Z,16.86
2022-09-26T15:16:12.436Z,16.71
2022-09-26T15:18:27.307Z,16.69
2022-09-26T15:20:36.634Z,16.68
2022-09-26T15:22:43.080Z,16.66
2022-09-26T15:24:56.221Z,16.70
2022-09-26T15:27:03.984Z,16.73
2022-09-26T15:29:10.024Z,16.68
2022-09-26T15:31:23.219Z,16.59
2022-09-26T15:33:28.322Z,16.50
2022-09-26T15:35:34.163Z,16.46
2022-09-26T15:37:39.634Z,16.37
2022-09-26T15:39:45.699Z,16.35
2022-09-26T15:42:08.203Z,16.33
2022-09-26T15:44:22.155Z,16.30
2022-09-26T15:46:27.669Z,16.29
2022-09-26T15:48:34.704Z,16.39
2022-09-26T15:50:44.969Z,16.38
2022-09-26T15:52:55.268Z,16.43
2022-09-26T15:55:00.445Z,16.35
2022-09-26T15:57:10.339Z,16.25
2022-09-26T15:59:20.869Z,16.27
2022-09-26T16:01:28.292Z,16.34
2022-09-26T16:03:42.428Z,16.39
2022-09-26T16:05:48.420Z,16.46
2022-09-26T16:07:55.308Z,16.49
2022-09-26T16:10:01.361Z,16.49
2022-09-26T16:12:15.151Z,16.49
2022-09-26T16:14:28.392Z,16.50
2022-09-26T16:16:37.719Z,16.48
2022-09-26T16:18:49.349Z,16.40
2022-09-26T16:21:18.490Z,16.26
2022-09-26T16:23:29.037Z,16.17
2022-09-26T16:25:36.379Z,16.17
2022-09-26T16:27:44.290Z,16.10
2022-09-26T16:29:53.464Z,16.02
2022-09-26T16:31:59.570Z,15.97
2022-09-26T16:34:06.977Z,15.96
2022-09-26T16:36:22.192Z,15.87
2022-09-26T16:38:30.015Z,15.78
2022-09-26T16:40:36.939Z,15.70
2022-09-26T16:42:46.409Z,15.70
2022-09-26T16:44:55.585Z,15.60
2022-09-26T16:47:02.577Z,15.51
2022-09-26T16:49:09.904Z,15.44
2022-09-26T16:51:17.109Z,15.39
2022-09-26T16:53:26.003Z,15.31
2022-09-26T16:55:30.980Z,15.28
2022-09-26T16:57:39.954Z,15.17
2022-09-26T16:59:49.830Z,15.12
2022-09-26T17:01:54.903Z,15.08
2022-09-26T17:04:02.217Z,15.02
2022-09-26T17:06:07.567Z,15.01
2022-09-26T17:08:13.853Z,15.02
2022-09-26T17:10:20.493Z,15.05
2022-09-26T17:12:25.541Z,15.09
2022-09-26T17:14:40.590Z,15.05
2022-09-26T17:16:50.656Z,15.04
2022-09-26T17:18:55.917Z,15.05
2022-09-26T17:21:01.790Z,15.03
2022-09-26T17:23:38.044Z,15.01
2022-09-26T17:25:40.873Z,14.98
2022-09-26T17:27:46.322Z,15.01
2022-09-26T17:29:53.248Z,15.05
2022-09-26T17:32:05.094Z,15.10
2022-09-26T17:34:14.736Z,15.13
2022-09-26T17:36:28.127Z,15.18
2022-09-26T17:38:38.593Z,15.22
2022-09-26T17:40:48.043Z,15.26
2022-09-26T17:42:55.443Z,15.30
2022-09-26T17:45:01.067Z,15.30
2022-09-26T17:47:09.360Z,15.31
2022-09-26T17:49:18.419Z,15.33
2022-09-26T17:51:24.056Z,15.34
2022-09-26T17:53:32.759Z,15.34
2022-09-26T17:55:37.968Z,15.34
2022-09-26T17:57:42.934Z,15.32
2022-09-26T17:59:48.805Z,15.33
2022-09-26T18:01:56.923Z,15.31
2022-09-26T18:04:12.650Z,15.28
2022-09-26T18:06:17.370Z,15.22
2022-09-26T18:08:28.492Z,15.20
2022-09-26T18:10:38.031Z,15.16
2022-09-26T18:12:43.024Z,15.15
2022-09-26T18:14:48.138Z,15.13
2022-09-26T18:16:52.951Z,15.11
2022-09-26T18:18:57.891Z,15.11
2022-09-26T18:21:05.783Z,15.13
2022-09-26T18:23:20.705Z,15.17
2022-09-26T18:25:28.229Z,15.17
2022-09-26T18:27:33.619Z,15.15
2022-09-26T18:29:41.753Z,15.15
2022-09-26T18:31:49.109Z,15.14
2022-09-26T18:33:54.822Z,15.13
2022-09-26T18:36:00.556Z,15.10
2022-09-26T18:38:08.495Z,15.11
2022-09-26T18:40:16.780Z,15.09
2022-09-26T18:42:24.651Z,15.03
2022-09-26T18:44:30.390Z,14.98
2022-09-26T18:46:37.788Z,14.94
2022-09-26T18:48:42.832Z,14.88
2022-09-26T18:50:48.011Z,14.82
2022-09-26T18:52:52.924Z,14.76
2022-09-26T18:55:12.727Z,14.71
2022-09-26T18:57:30.192Z,14.69
2022-09-26T18:59:35.136Z,14.67
2022-09-26T19:01:43.230Z,14.64
2022-09-26T19:03:51.100Z,14.62
2022-09-26T19:06:03.440Z,14.60
2022-09-26T19:08:08.506Z,14.57
2022-09-26T19:10:22.731Z,14.56
2022-09-26T19:12:27.858Z,14.55
2022-09-26T19:14:36.897Z,14.53
2022-09-26T19:16:41.921Z,14.51
2022-09-26T19:18:47.944Z,14.54
2022-09-26T19:20:52.969Z,14.56
2022-09-26T19:22:59.760Z,14.54
2022-09-26T19:25:05.311Z,14.52
2022-09-26T19:27:16.763Z,14.49
2022-09-26T19:29:30.155Z,14.47
2022-09-26T19:31:35.185Z,14.41
2022-09-26T19:33:43.035Z,14.44
2022-09-26T19:35:48.269Z,14.45
2022-09-26T19:37:53.600Z,14.45
2022-09-26T19:39:59.359Z,14.45
2022-09-26T19:42:04.822Z,14.47
2022-09-26T19:44:12.666Z,14.45
2022-09-26T19:46:25.163Z,14.46
2022-09-26T19:48:34.006Z,14.46
2022-09-26T19:50:43.766Z,14.45
2022-09-26T19:52:49.169Z,14.45
2022-09-26T19:54:54.348Z,14.42
2022-09-26T19:56:59.567Z,14.41
2022-09-26T19:59:04.404Z,14.36
2022-09-26T20:01:20.381Z,14.33
2022-09-26T20:03:31.093Z,14.29
2022-09-26T20:05:36.588Z,14.29
2022-09-26T20:07:41.573Z,14.32
2022-09-26T20:09:46.963Z,14.30
2022-09-26T20:11:51.864Z,14.29
2022-09-26T20:14:09.218Z,14.30
2022-09-26T20:16:17.024Z,14.27
2022-09-26T20:18:25.015Z,14.25
2022-09-26T20:20:32.179Z,14.25
2022-09-26T20:22:40.092Z,14.28
2022-09-26T20:24:45.792Z,14.27
2022-09-26T20:26:52.614Z,14.25
2022-09-26T20:28:57.719Z,14.22
2022-09-26T20:31:00.093Z,14.20
2022-09-26T20:33:08.869Z,14.19
2022-09-26T20:35:17.015Z,14.20
2022-09-26T20:37:23.800Z,14.17
2022-09-26T20:39:29.399Z,14.18
2022-09-26T20:41:37.656Z,14.15
2022-09-26T20:43:42.747Z,14.11
2022-09-26T20:45:48.484Z,14.08
2022-09-26T20:47:53.584Z,14.08
2022-09-26T20:50:03.638Z,14.06
2022-09-26T20:52:09.053Z,14.03
2022-09-26T20:54:26.909Z,14.04
2022-09-26T20:56:32.330Z,14.06
2022-09-26T20:58:37.297Z,14.06
2022-09-26T21:00:42.924Z,14.05
2022-09-26T21:02:50.376Z,14.04
2022-09-26T21:04:55.752Z,13.99
2022-09-26T21:07:03.266Z,13.98
2022-09-26T21:09:08.334Z,13.99
2022-09-26T21:11:15.908Z,13.97
2022-09-26T21:13:20.831Z,13.99
2022-09-26T21:15:26.922Z,13.98
2022-09-26T21:17:32.671Z,13.90
2022-09-26T21:19:37.600Z,13.89
2022-09-26T21:21:56.856Z,13.89
2022-09-26T21:24:25.194Z,13.95
2022-09-26T21:26:31.751Z,13.91
2022-09-26T21:28:36.713Z,13.88
2022-09-26T21:30:41.649Z,13.90
2022-09-26T21:32:49.399Z,13.91
2022-09-26T21:35:01.118Z,13.88
2022-09-26T21:37:06.152Z,13.85
2022-09-26T21:39:11.020Z,13.80
2022-09-26T21:41:18.762Z,13.83
2022-09-26T21:43:28.029Z,13.86
2022-09-26T21:45:32.896Z,13.86
2022-09-26T21:47:38.375Z,13.85
2022-09-26T21:49:43.537Z,13.84
2022-09-26T21:51:53.241Z,13.84
2022-09-26T21:54:01.840Z,13.82
2022-09-26T21:56:12.495Z,13.89
2022-09-26T21:58:24.361Z,13.94
2022-09-26T22:00:29.817Z,13.97
2022-09-26T22:02:34.844Z,13.96
2022-09-26T22:04:39.760Z,13.93
2022-09-26T22:06:45.024Z,13.96
2022-09-26T22:08:50.374Z,13.96
2022-09-26T22:10:56.016Z,13.97
2022-09-26T22:13:01.335Z,13.98
2022-09-26T22:15:10.281Z,13.96
2022-09-26T22:17:15.179Z,13.98
2022-09-26T22:19:20.339Z,13.97
2022-09-26T22:21:25.300Z,13.96
2022-09-26T22:23:30.312Z,13.95
2022-09-26T22:25:36.952Z,13.96
2022-09-26T22:27:44.786Z,13.94
2022-09-26T22:29:49.999Z,13.95
2022-09-26T22:31:57.244Z,13.91
2022-09-26T22:34:02.667Z,13.92
2022-09-26T22:36:08.303Z,13.96
2022-09-26T22:38:13.199Z,13.96
2022-09-26T22:40:18.301Z,13.94
2022-09-26T22:42:23.356Z,13.95
2022-09-26T22:44:28.285Z,13.95
2022-09-26T22:46:35.386Z,13.99
2022-09-26T22:48:45.495Z,14.02
2022-09-26T22:50:50.410Z,13.98
2022-09-26T22:52:55.711Z,14.01
2022-09-26T22:55:00.603Z,14.01
2022-09-26T22:57:05.645Z,14.03
2022-09-26T22:59:10.656Z,14.06
2022-09-26T23:01:18.590Z,14.09
2022-09-26T23:03:23.559Z,14.12
2022-09-26T23:05:31.156Z,14.09
2022-09-26T23:07:36.129Z,14.04
2022-09-26T23:09:41.399Z,14.00
2022-09-26T23:11:47.228Z,13.90
2022-09-26T23:13:54.668Z,13.75
2022-09-26T23:16:05.215Z,13.71
2022-09-26T23:18:10.173Z,13.71
2022-09-26T23:20:15.078Z,13.74
2022-09-26T23:22:25.363Z,13.80
2022-09-26T23:24:30.340Z,13.83
2022-09-26T23:26:35.289Z,13.85
2022-09-26T23:28:40.183Z,13.78
2022-09-26T23:30:45.739Z,13.75
2022-09-26T23:32:51.156Z,13.75
2022-09-26T23:34:56.114Z,13.77
2022-09-26T23:37:01.018Z,13.77
2022-09-26T23:39:08.834Z,13.76
2022-09-26T23:41:15.048Z,13.73
2022-09-26T23:43:20.433Z,13.69
2022-09-26T23:45:25.315Z,13.68
2022-09-26T23:47:30.267Z,13.57
2022-09-26T23:49:35.187Z,13.57
2022-09-26T23:51:40.117Z,13.55
2022-09-26T23:53:45.182Z,13.55
2022-09-26T23:55:53.186Z,13.51
2022-09-26T23:57:59.513Z,13.48
